sensor_id;sensor_type;location;lat;lon;timestamp;P1;durP1;ratioP1;P2;durP2;ratioP2
5175;SDS011;2607;50.934;6.934;2023-09-12T00:01:21;9.03;;;7.30;;
5175;SDS011;2607;50.934;6.934;2023-09-12T00:03:47;9.20;;;6.63;;
5175;SDS011;2607;50.934;6.934;2023-09-12T00:06:13;9.50;;;6.87;;
5175;SDS011;2607;50.934;6.934;2023-09-12T00:08:38;8.00;;;5.63;;
5175;SDS011;2607;50.934;6.934;2023-09-12T00:11:07;6.53;;;5.90;;
5175;SDS011;2607;50.934;6.934;2023-09-12T00:13:38;7.20;;;6.50;;
5175;SDS011;2607;50.934;6.934;2023-09-12T00:16:05;8.33;;;6.47;;
5175;SDS011;2607;50.934;6.934;2023-09-12T00:18:31;6.73;;;6.10;;
5175;SDS011;2607;50.934;6.934;2023-09-12T00:20:56;6.83;;;6.17;;
5175;SDS011;2607;50.934;6.934;2023-09-12T00:23:24;7.60;;;5.53;;
5175;SDS011;2607;50.934;6.934;2023-09-12T00:25:50;9.47;;;6.80;;
5175;SDS011;2607;50.934;6.934;2023-09-12T00:28:19;7.17;;;6.50;;
5175;SDS011;2607;50.934;6.934;2023-09-12T00:30:45;7.80;;;6.20;;
5175;SDS011;2607;50.934;6.934;2023-09-12T00:33:11;9.17;;;6.43;;
5175;SDS011;2607;50.934;6.934;2023-09-12T00:35:36;8.10;;;6.63;;
5175;SDS011;2607;50.934;6.934;2023-09-12T00:38:02;10.00;;;6.70;;
5175;SDS011;2607;50.934;6.934;2023-09-12T00:40:28;7.80;;;7.00;;
5175;SDS011;2607;50.934;6.934;2023-09-12T00:42:54;12.50;;;6.97;;
5175;SDS011;2607;50.934;6.934;2023-09-12T00:45:20;10.07;;;7.80;;
5175;SDS011;2607;50.934;6.934;2023-09-12T00:47:45;7.63;;;6.50;;
5175;SDS011;2607;50.934;6.934;2023-09-12T00:50:12;10.87;;;7.50;;
5175;SDS011;2607;50.934;6.934;2023-09-12T00:52:39;14.70;;;7.50;;
5175;SDS011;2607;50.934;6.934;2023-09-12T00:55:06;7.73;;;6.93;;
5175;SDS011;2607;50.934;6.934;2023-09-12T00:57:32;8.03;;;7.13;;
5175;SDS011;2607;50.934;6.934;2023-09-12T00:59:59;9.17;;;7.13;;
5175;SDS011;2607;50.934;6.934;2023-09-12T01:02:39;11.60;;;7.30;;
5175;SDS011;2607;50.934;6.934;2023-09-12T01:05:09;10.97;;;7.83;;
5175;SDS011;2607;50.934;6.934;2023-09-12T01:07:35;10.17;;;7.47;;
5175;SDS011;2607;50.934;6.934;2023-09-12T01:10:02;18.53;;;8.53;;
5175;SDS011;2607;50.934;6.934;2023-09-12T01:12:29;9.87;;;7.63;;
5175;SDS011;2607;50.934;6.934;2023-09-12T01:14:54;9.30;;;7.60;;
5175;SDS011;2607;50.934;6.934;2023-09-12T01:17:20;11.57;;;8.13;;
5175;SDS011;2607;50.934;6.934;2023-09-12T01:19:46;8.97;;;8.17;;
5175;SDS011;2607;50.934;6.934;2023-09-12T01:22:27;10.77;;;7.50;;
5175;SDS011;2607;50.934;6.934;2023-09-12T01:28:09;8.70;;;7.90;;
5175;SDS011;2607;50.934;6.934;2023-09-12T01:30:35;9.30;;;7.80;;
5175;SDS011;2607;50.934;6.934;2023-09-12T01:33:03;9.93;;;8.73;;
5175;SDS011;2607;50.934;6.934;2023-09-12T01:35:29;11.77;;;8.60;;
5175;SDS011;2607;50.934;6.934;2023-09-12T01:37:55;12.97;;;9.20;;
5175;SDS011;2607;50.934;6.934;2023-09-12T01:40:24;9.47;;;8.57;;
5175;SDS011;2607;50.934;6.934;2023-09-12T01:42:58;10.27;;;9.20;;
5175;SDS011;2607;50.934;6.934;2023-09-12T01:45:25;16.77;;;9.20;;
5175;SDS011;2607;50.934;6.934;2023-09-12T01:47:52;11.67;;;9.17;;
5175;SDS011;2607;50.934;6.934;2023-09-12T01:50:18;12.50;;;9.60;;
5175;SDS011;2607;50.934;6.934;2023-09-12T01:52:45;10.73;;;9.70;;
5175;SDS011;2607;50.934;6.934;2023-09-12T01:55:11;12.93;;;9.77;;
5175;SDS011;2607;50.934;6.934;2023-09-12T01:57:37;11.70;;;9.27;;
5175;SDS011;2607;50.934;6.934;2023-09-12T02:00:03;11.40;;;9.03;;
5175;SDS011;2607;50.934;6.934;2023-09-12T02:02:29;12.73;;;10.10;;
5175;SDS011;2607;50.934;6.934;2023-09-12T02:05:05;10.00;;;9.00;;
5175;SDS011;2607;50.934;6.934;2023-09-12T02:07:42;10.93;;;9.47;;
5175;SDS011;2607;50.934;6.934;2023-09-12T02:10:07;12.83;;;9.47;;
5175;SDS011;2607;50.934;6.934;2023-09-12T02:12:34;19.50;;;9.43;;
5175;SDS011;2607;50.934;6.934;2023-09-12T02:15:00;15.53;;;9.63;;
5175;SDS011;2607;50.934;6.934;2023-09-12T02:17:26;11.80;;;9.67;;
5175;SDS011;2607;50.934;6.934;2023-09-12T02:19:51;15.60;;;10.80;;
5175;SDS011;2607;50.934;6.934;2023-09-12T02:22:17;12.17;;;9.20;;
5175;SDS011;2607;50.934;6.934;2023-09-12T02:24:43;10.40;;;9.40;;
5175;SDS011;2607;50.934;6.934;2023-09-12T02:27:08;14.77;;;10.30;;
5175;SDS011;2607;50.934;6.934;2023-09-12T02:29:34;18.33;;;10.70;;
5175;SDS011;2607;50.934;6.934;2023-09-12T02:31:59;12.63;;;11.10;;
5175;SDS011;2607;50.934;6.934;2023-09-12T02:34:25;15.50;;;10.23;;
5175;SDS011;2607;50.934;6.934;2023-09-12T02:36:51;12.93;;;10.70;;
5175;SDS011;2607;50.934;6.934;2023-09-12T02:39:16;14.90;;;10.97;;
5175;SDS011;2607;50.934;6.934;2023-09-12T02:41:42;14.13;;;11.40;;
5175;SDS011;2607;50.934;6.934;2023-09-12T02:44:08;13.77;;;11.00;;
5175;SDS011;2607;50.934;6.934;2023-09-12T02:46:34;16.10;;;10.93;;
5175;SDS011;2607;50.934;6.934;2023-09-12T02:49:01;20.03;;;12.10;;
5175;SDS011;2607;50.934;6.934;2023-09-12T02:51:26;15.90;;;11.63;;
5175;SDS011;2607;50.934;6.934;2023-09-12T02:53:52;16.80;;;10.57;;
5175;SDS011;2607;50.934;6.934;2023-09-12T02:56:18;17.13;;;11.47;;
5175;SDS011;2607;50.934;6.934;2023-09-12T02:58:46;21.70;;;12.43;;
5175;SDS011;2607;50.934;6.934;2023-09-12T03:01:15;15.27;;;11.87;;
5175;SDS011;2607;50.934;6.934;2023-09-12T03:03:42;13.27;;;11.30;;
5175;SDS011;2607;50.934;6.934;2023-09-12T03:06:07;11.73;;;10.53;;
5175;SDS011;2607;50.934;6.934;2023-09-12T03:08:33;15.07;;;10.37;;
5175;SDS011;2607;50.934;6.934;2023-09-12T03:10:58;28.00;;;17.40;;
5175;SDS011;2607;50.934;6.934;2023-09-12T03:13:24;16.53;;;12.50;;
5175;SDS011;2607;50.934;6.934;2023-09-12T03:15:50;12.40;;;10.87;;
5175;SDS011;2607;50.934;6.934;2023-09-12T03:18:16;11.37;;;8.83;;
5175;SDS011;2607;50.934;6.934;2023-09-12T03:20:42;10.20;;;9.27;;
5175;SDS011;2607;50.934;6.934;2023-09-12T03:23:07;25.50;;;18.63;;
5175;SDS011;2607;50.934;6.934;2023-09-12T03:25:36;10.40;;;9.30;;
5175;SDS011;2607;50.934;6.934;2023-09-12T03:28:03;12.67;;;10.17;;
5175;SDS011;2607;50.934;6.934;2023-09-12T03:30:29;13.97;;;12.30;;
5175;SDS011;2607;50.934;6.934;2023-09-12T03:32:56;13.80;;;12.33;;
5175;SDS011;2607;50.934;6.934;2023-09-12T03:35:21;11.90;;;9.70;;
5175;SDS011;2607;50.934;6.934;2023-09-12T03:37:47;21.57;;;16.97;;
5175;SDS011;2607;50.934;6.934;2023-09-12T03:40:12;11.67;;;10.30;;
5175;SDS011;2607;50.934;6.934;2023-09-12T03:42:38;13.20;;;9.77;;
5175;SDS011;2607;50.934;6.934;2023-09-12T03:45:04;14.27;;;9.70;;
5175;SDS011;2607;50.934;6.934;2023-09-12T03:47:30;10.97;;;9.30;;
5175;SDS011;2607;50.934;6.934;2023-09-12T03:49:55;12.70;;;9.10;;
5175;SDS011;2607;50.934;6.934;2023-09-12T03:52:21;17.60;;;10.17;;
5175;SDS011;2607;50.934;6.934;2023-09-12T03:54:46;12.30;;;11.03;;
5175;SDS011;2607;50.934;6.934;2023-09-12T03:57:12;10.23;;;9.30;;
5175;SDS011;2607;50.934;6.934;2023-09-12T03:59:37;14.20;;;10.53;;
5175;SDS011;2607;50.934;6.934;2023-09-12T04:02:03;11.20;;;8.80;;
5175;SDS011;2607;50.934;6.934;2023-09-12T04:04:29;10.93;;;9.20;;
5175;SDS011;2607;50.934;6.934;2023-09-12T04:06:54;11.30;;;9.13;;
5175;SDS011;2607;50.934;6.934;2023-09-12T04:09:20;11.93;;;9.83;;
5175;SDS011;2607;50.934;6.934;2023-09-12T04:11:46;11.13;;;8.70;;
5175;SDS011;2607;50.934;6.934;2023-09-12T04:14:12;10.53;;;9.53;;
5175;SDS011;2607;50.934;6.934;2023-09-12T04:16:39;11.50;;;8.73;;
5175;SDS011;2607;50.934;6.934;2023-09-12T04:19:05;9.90;;;8.60;;
5175;SDS011;2607;50.934;6.934;2023-09-12T04:21:30;9.30;;;8.37;;
5175;SDS011;2607;50.934;6.934;2023-09-12T04:23:56;9.57;;;8.57;;
5175;SDS011;2607;50.934;6.934;2023-09-12T04:26:21;10.80;;;8.87;;
5175;SDS011;2607;50.934;6.934;2023-09-12T04:28:47;10.27;;;8.30;;
5175;SDS011;2607;50.934;6.934;2023-09-12T04:31:13;10.80;;;9.07;;
5175;SDS011;2607;50.934;6.934;2023-09-12T04:33:38;10.00;;;8.10;;
5175;SDS011;2607;50.934;6.934;2023-09-12T04:36:04;9.60;;;8.60;;
5175;SDS011;2607;50.934;6.934;2023-09-12T04:38:30;9.87;;;7.70;;
5175;SDS011;2607;50.934;6.934;2023-09-12T04:40:59;10.03;;;7.60;;
5175;SDS011;2607;50.934;6.934;2023-09-12T04:43:31;9.17;;;8.20;;
5175;SDS011;2607;50.934;6.934;2023-09-12T04:45:56;9.43;;;8.50;;
5175;SDS011;2607;50.934;6.934;2023-09-12T04:48:22;11.70;;;8.17;;
5175;SDS011;2607;50.934;6.934;2023-09-12T04:50:48;11.70;;;8.70;;
5175;SDS011;2607;50.934;6.934;2023-09-12T04:53:14;8.70;;;7.57;;
5175;SDS011;2607;50.934;6.934;2023-09-12T04:55:39;8.73;;;7.10;;
5175;SDS011;2607;50.934;6.934;2023-09-12T04:58:05;14.50;;;8.30;;
5175;SDS011;2607;50.934;6.934;2023-09-12T05:00:31;8.20;;;7.30;;
5175;SDS011;2607;50.934;6.934;2023-09-12T05:02:57;9.50;;;7.93;;
5175;SDS011;2607;50.934;6.934;2023-09-12T05:05:23;11.43;;;7.33;;
5175;SDS011;2607;50.934;6.934;2023-09-12T05:07:49;17.67;;;7.70;;
5175;SDS011;2607;50.934;6.934;2023-09-12T05:10:16;11.83;;;7.60;;
5175;SDS011;2607;50.934;6.934;2023-09-12T05:12:43;8.70;;;7.83;;
5175;SDS011;2607;50.934;6.934;2023-09-12T05:15:09;11.37;;;8.00;;
5175;SDS011;2607;50.934;6.934;2023-09-12T05:17:35;9.07;;;7.37;;
5175;SDS011;2607;50.934;6.934;2023-09-12T05:20:01;11.53;;;8.30;;
5175;SDS011;2607;50.934;6.934;2023-09-12T05:22:29;15.77;;;8.03;;
5175;SDS011;2607;50.934;6.934;2023-09-12T05:24:55;8.50;;;6.90;;
5175;SDS011;2607;50.934;6.934;2023-09-12T05:27:21;11.20;;;7.83;;
5175;SDS011;2607;50.934;6.934;2023-09-12T05:29:46;12.20;;;8.20;;
5175;SDS011;2607;50.934;6.934;2023-09-12T05:32:12;9.00;;;6.70;;
5175;SDS011;2607;50.934;6.934;2023-09-12T05:34:37;10.37;;;7.00;;
5175;SDS011;2607;50.934;6.934;2023-09-12T05:37:03;10.70;;;6.70;;
5175;SDS011;2607;50.934;6.934;2023-09-12T05:39:28;9.53;;;7.53;;
5175;SDS011;2607;50.934;6.934;2023-09-12T05:41:54;7.27;;;6.67;;
5175;SDS011;2607;50.934;6.934;2023-09-12T05:44:19;13.93;;;6.80;;
5175;SDS011;2607;50.934;6.934;2023-09-12T05:46:45;7.10;;;6.37;;
5175;SDS011;2607;50.934;6.934;2023-09-12T05:49:12;9.37;;;6.97;;
5175;SDS011;2607;50.934;6.934;2023-09-12T05:51:38;8.00;;;7.17;;
5175;SDS011;2607;50.934;6.934;2023-09-12T05:54:03;9.90;;;7.43;;
5175;SDS011;2607;50.934;6.934;2023-09-12T05:56:29;8.43;;;6.53;;
5175;SDS011;2607;50.934;6.934;2023-09-12T05:58:55;9.73;;;6.63;;
5175;SDS011;2607;50.934;6.934;2023-09-12T06:01:20;7.77;;;6.90;;
5175;SDS011;2607;50.934;6.934;2023-09-12T06:03:46;9.03;;;7.00;;
5175;SDS011;2607;50.934;6.934;2023-09-12T06:06:11;8.10;;;7.00;;
5175;SDS011;2607;50.934;6.934;2023-09-12T06:08:37;7.93;;;7.13;;
5175;SDS011;2607;50.934;6.934;2023-09-12T06:11:03;7.03;;;6.33;;
5175;SDS011;2607;50.934;6.934;2023-09-12T06:13:28;8.80;;;6.60;;
5175;SDS011;2607;50.934;6.934;2023-09-12T06:15:55;8.83;;;6.90;;
5175;SDS011;2607;50.934;6.934;2023-09-12T06:18:20;7.50;;;6.10;;
5175;SDS011;2607;50.934;6.934;2023-09-12T06:20:46;6.23;;;5.50;;
5175;SDS011;2607;50.934;6.934;2023-09-12T06:23:12;6.30;;;5.80;;
5175;SDS011;2607;50.934;6.934;2023-09-12T06:25:37;10.03;;;6.50;;
5175;SDS011;2607;50.934;6.934;2023-09-12T06:28:03;8.27;;;6.70;;
5175;SDS011;2607;50.934;6.934;2023-09-12T06:30:29;9.53;;;7.30;;
5175;SDS011;2607;50.934;6.934;2023-09-12T06:32:54;8.83;;;7.23;;
5175;SDS011;2607;50.934;6.934;2023-09-12T06:35:20;12.93;;;9.93;;
5175;SDS011;2607;50.934;6.934;2023-09-12T06:37:45;16.87;;;10.10;;
5175;SDS011;2607;50.934;6.934;2023-09-12T06:40:12;17.63;;;10.77;;
5175;SDS011;2607;50.934;6.934;2023-09-12T06:42:37;14.23;;;10.73;;
5175;SDS011;2607;50.934;6.934;2023-09-12T06:45:03;24.57;;;12.20;;
5175;SDS011;2607;50.934;6.934;2023-09-12T06:47:29;13.90;;;10.90;;
5175;SDS011;2607;50.934;6.934;2023-09-12T06:49:54;17.63;;;12.10;;
5175;SDS011;2607;50.934;6.934;2023-09-12T06:52:20;20.83;;;13.13;;
5175;SDS011;2607;50.934;6.934;2023-09-12T06:54:45;17.93;;;13.83;;
5175;SDS011;2607;50.934;6.934;2023-09-12T06:57:11;16.30;;;12.60;;
5175;SDS011;2607;50.934;6.934;2023-09-12T06:59:37;20.10;;;12.57;;
5175;SDS011;2607;50.934;6.934;2023-09-12T07:02:02;19.73;;;12.90;;
5175;SDS011;2607;50.934;6.934;2023-09-12T07:04:29;19.30;;;12.10;;
5175;SDS011;2607;50.934;6.934;2023-09-12T07:06:55;15.00;;;11.13;;
5175;SDS011;2607;50.934;6.934;2023-09-12T07:09:20;14.23;;;11.37;;
5175;SDS011;2607;50.934;6.934;2023-09-12T07:11:46;19.63;;;11.63;;
5175;SDS011;2607;50.934;6.934;2023-09-12T07:14:13;19.33;;;11.87;;
5175;SDS011;2607;50.934;6.934;2023-09-12T07:16:38;15.53;;;10.37;;
5175;SDS011;2607;50.934;6.934;2023-09-12T07:19:04;15.87;;;10.57;;
5175;SDS011;2607;50.934;6.934;2023-09-12T07:21:31;16.07;;;10.33;;
5175;SDS011;2607;50.934;6.934;2023-09-12T07:23:57;11.83;;;9.77;;
5175;SDS011;2607;50.934;6.934;2023-09-12T07:26:22;11.03;;;9.77;;
5175;SDS011;2607;50.934;6.934;2023-09-12T07:28:48;15.43;;;10.60;;
5175;SDS011;2607;50.934;6.934;2023-09-12T07:31:14;17.33;;;10.23;;
5175;SDS011;2607;50.934;6.934;2023-09-12T07:33:39;14.03;;;9.67;;
5175;SDS011;2607;50.934;6.934;2023-09-12T07:36:06;11.57;;;9.70;;
5175;SDS011;2607;50.934;6.934;2023-09-12T07:38:31;13.70;;;9.60;;
5175;SDS011;2607;50.934;6.934;2023-09-12T07:41:00;10.30;;;9.30;;
5175;SDS011;2607;50.934;6.934;2023-09-12T07:43:27;9.57;;;8.67;;
5175;SDS011;2607;50.934;6.934;2023-09-12T07:45:56;9.63;;;8.50;;
5175;SDS011;2607;50.934;6.934;2023-09-12T07:48:22;11.30;;;8.83;;
5175;SDS011;2607;50.934;6.934;2023-09-12T07:50:48;11.67;;;9.00;;
5175;SDS011;2607;50.934;6.934;2023-09-12T07:53:14;17.43;;;8.30;;
5175;SDS011;2607;50.934;6.934;2023-09-12T07:55:39;9.93;;;7.70;;
5175;SDS011;2607;50.934;6.934;2023-09-12T07:58:12;15.43;;;7.67;;
5175;SDS011;2607;50.934;6.934;2023-09-12T08:00:38;7.13;;;6.53;;
5175;SDS011;2607;50.934;6.934;2023-09-12T08:03:04;22.90;;;6.83;;
5175;SDS011;2607;50.934;6.934;2023-09-12T08:05:29;7.40;;;6.70;;
5175;SDS011;2607;50.934;6.934;2023-09-12T08:07:55;8.87;;;7.47;;
5175;SDS011;2607;50.934;6.934;2023-09-12T08:10:20;7.80;;;6.50;;
5175;SDS011;2607;50.934;6.934;2023-09-12T08:12:46;6.67;;;6.10;;
5175;SDS011;2607;50.934;6.934;2023-09-12T08:15:12;6.80;;;6.10;;
5175;SDS011;2607;50.934;6.934;2023-09-12T08:17:38;8.07;;;6.87;;
5175;SDS011;2607;50.934;6.934;2023-09-12T08:20:03;7.10;;;6.10;;
5175;SDS011;2607;50.934;6.934;2023-09-12T08:22:30;7.03;;;6.33;;
5175;SDS011;2607;50.934;6.934;2023-09-12T08:24:56;9.87;;;5.97;;
5175;SDS011;2607;50.934;6.934;2023-09-12T08:27:21;7.23;;;6.33;;
5175;SDS011;2607;50.934;6.934;2023-09-12T08:29:47;11.33;;;6.67;;
5175;SDS011;2607;50.934;6.934;2023-09-12T08:32:13;13.60;;;7.10;;
5175;SDS011;2607;50.934;6.934;2023-09-12T08:34:39;7.33;;;6.73;;
5175;SDS011;2607;50.934;6.934;2023-09-12T08:37:04;8.07;;;6.13;;
5175;SDS011;2607;50.934;6.934;2023-09-12T08:39:39;13.93;;;6.63;;
5175;SDS011;2607;50.934;6.934;2023-09-12T08:42:08;13.47;;;6.90;;
5175;SDS011;2607;50.934;6.934;2023-09-12T08:44:38;9.37;;;7.13;;
5175;SDS011;2607;50.934;6.934;2023-09-12T08:47:06;12.73;;;7.47;;
5175;SDS011;2607;50.934;6.934;2023-09-12T08:49:34;8.43;;;7.67;;
5175;SDS011;2607;50.934;6.934;2023-09-12T08:52:01;7.57;;;6.80;;
5175;SDS011;2607;50.934;6.934;2023-09-12T08:54:27;11.47;;;8.07;;
5175;SDS011;2607;50.934;6.934;2023-09-12T08:56:53;12.13;;;8.30;;
5175;SDS011;2607;50.934;6.934;2023-09-12T08:59:19;7.70;;;6.80;;
5175;SDS011;2607;50.934;6.934;2023-09-12T09:01:45;11.93;;;7.63;;
5175;SDS011;2607;50.934;6.934;2023-09-12T09:04:11;9.63;;;7.40;;
5175;SDS011;2607;50.934;6.934;2023-09-12T09:06:37;16.53;;;7.40;;
5175;SDS011;2607;50.934;6.934;2023-09-12T09:09:07;7.97;;;7.13;;
5175;SDS011;2607;50.934;6.934;2023-09-12T09:11:33;9.50;;;6.83;;
5175;SDS011;2607;50.934;6.934;2023-09-12T09:14:00;8.90;;;6.97;;
5175;SDS011;2607;50.934;6.934;2023-09-12T09:16:29;10.60;;;7.43;;
5175;SDS011;2607;50.934;6.934;2023-09-12T09:18:56;7.97;;;7.17;;
5175;SDS011;2607;50.934;6.934;2023-09-12T09:21:35;7.13;;;6.43;;
5175;SDS011;2607;50.934;6.934;2023-09-12T09:24:13;7.80;;;7.10;;
5175;SDS011;2607;50.934;6.934;2023-09-12T09:29:12;7.03;;;6.30;;
5175;SDS011;2607;50.934;6.934;2023-09-12T09:31:41;8.17;;;7.40;;
5175;SDS011;2607;50.934;6.934;2023-09-12T09:34:11;6.93;;;6.23;;
5175;SDS011;2607;50.934;6.934;2023-09-12T09:36:47;7.13;;;6.43;;
5175;SDS011;2607;50.934;6.934;2023-09-12T09:39:14;7.70;;;6.77;;
5175;SDS011;2607;50.934;6.934;2023-09-12T09:41:41;10.90;;;6.00;;
5175;SDS011;2607;50.934;6.934;2023-09-12T09:44:08;7.40;;;6.23;;
5175;SDS011;2607;50.934;6.934;2023-09-12T09:46:36;6.63;;;5.93;;
5175;SDS011;2607;50.934;6.934;2023-09-12T09:49:03;12.03;;;5.97;;
5175;SDS011;2607;50.934;6.934;2023-09-12T09:51:29;6.00;;;5.40;;
5175;SDS011;2607;50.934;6.934;2023-09-12T09:53:56;7.60;;;6.20;;
5175;SDS011;2607;50.934;6.934;2023-09-12T09:56:23;8.03;;;6.47;;
5175;SDS011;2607;50.934;6.934;2023-09-12T10:01:18;5.90;;;5.40;;
5175;SDS011;2607;50.934;6.934;2023-09-12T10:03:48;6.43;;;5.83;;
5175;SDS011;2607;50.934;6.934;2023-09-12T10:06:15;6.07;;;5.57;;
5175;SDS011;2607;50.934;6.934;2023-09-12T10:08:43;6.70;;;5.77;;
5175;SDS011;2607;50.934;6.934;2023-09-12T10:11:10;5.73;;;5.10;;
5175;SDS011;2607;50.934;6.934;2023-09-12T10:13:42;5.20;;;4.80;;
5175;SDS011;2607;50.934;6.934;2023-09-12T10:16:15;5.13;;;4.73;;
5175;SDS011;2607;50.934;6.934;2023-09-12T10:18:51;5.53;;;4.97;;
5175;SDS011;2607;50.934;6.934;2023-09-12T10:21:31;4.93;;;4.60;;
5175;SDS011;2607;50.934;6.934;2023-09-12T10:23:58;10.10;;;5.57;;
5175;SDS011;2607;50.934;6.934;2023-09-12T10:26:25;5.00;;;4.47;;
5175;SDS011;2607;50.934;6.934;2023-09-12T10:28:51;9.17;;;5.17;;
5175;SDS011;2607;50.934;6.934;2023-09-12T10:31:18;5.30;;;4.40;;
5175;SDS011;2607;50.934;6.934;2023-09-12T10:33:44;5.00;;;4.50;;
5175;SDS011;2607;50.934;6.934;2023-09-12T10:36:12;5.03;;;4.63;;
5175;SDS011;2607;50.934;6.934;2023-09-12T10:38:40;6.13;;;4.33;;
5175;SDS011;2607;50.934;6.934;2023-09-12T10:41:10;5.50;;;4.87;;
5175;SDS011;2607;50.934;6.934;2023-09-12T10:43:38;5.30;;;4.90;;
5175;SDS011;2607;50.934;6.934;2023-09-12T10:46:06;6.70;;;4.87;;
5175;SDS011;2607;50.934;6.934;2023-09-12T10:48:32;5.17;;;4.67;;
5175;SDS011;2607;50.934;6.934;2023-09-12T10:51:00;5.10;;;4.60;;
5175;SDS011;2607;50.934;6.934;2023-09-12T10:53:30;6.73;;;4.43;;
5175;SDS011;2607;50.934;6.934;2023-09-12T10:56:00;6.70;;;5.73;;
5175;SDS011;2607;50.934;6.934;2023-09-12T10:58:26;14.83;;;5.27;;
5175;SDS011;2607;50.934;6.934;2023-09-12T11:03:50;6.53;;;5.70;;
5175;SDS011;2607;50.934;6.934;2023-09-12T11:06:19;6.33;;;5.77;;
5175;SDS011;2607;50.934;6.934;2023-09-12T11:09:11;9.70;;;5.10;;
5175;SDS011;2607;50.934;6.934;2023-09-12T11:11:38;10.03;;;6.70;;
5175;SDS011;2607;50.934;6.934;2023-09-12T11:14:05;7.73;;;5.47;;
5175;SDS011;2607;50.934;6.934;2023-09-12T11:16:31;6.67;;;5.77;;
5175;SDS011;2607;50.934;6.934;2023-09-12T11:19:16;5.60;;;5.07;;
5175;SDS011;2607;50.934;6.934;2023-09-12T11:21:44;6.73;;;5.97;;
5175;SDS011;2607;50.934;6.934;2023-09-12T11:24:11;6.00;;;5.50;;
5175;SDS011;2607;50.934;6.934;2023-09-12T11:29:22;6.10;;;5.30;;
5175;SDS011;2607;50.934;6.934;2023-09-12T11:32:01;5.93;;;5.43;;
5175;SDS011;2607;50.934;6.934;2023-09-12T11:34:36;8.10;;;5.67;;
5175;SDS011;2607;50.934;6.934;2023-09-12T11:37:01;9.00;;;5.70;;
5175;SDS011;2607;50.934;6.934;2023-09-12T11:39:29;9.97;;;5.87;;
5175;SDS011;2607;50.934;6.934;2023-09-12T11:41:57;6.63;;;5.23;;
5175;SDS011;2607;50.934;6.934;2023-09-12T11:44:24;11.63;;;5.43;;
5175;SDS011;2607;50.934;6.934;2023-09-12T11:46:51;4.57;;;4.37;;
5175;SDS011;2607;50.934;6.934;2023-09-12T11:49:18;6.50;;;4.90;;
5175;SDS011;2607;50.934;6.934;2023-09-12T11:51:51;10.63;;;5.10;;
5175;SDS011;2607;50.934;6.934;2023-09-12T11:54:18;4.73;;;4.43;;
5175;SDS011;2607;50.934;6.934;2023-09-12T11:56:48;5.17;;;4.77;;
5175;SDS011;2607;50.934;6.934;2023-09-12T11:59:14;5.53;;;4.50;;
5175;SDS011;2607;50.934;6.934;2023-09-12T12:01:43;9.73;;;4.53;;
5175;SDS011;2607;50.934;6.934;2023-09-12T12:04:10;5.00;;;4.50;;
5175;SDS011;2607;50.934;6.934;2023-09-12T12:06:36;5.03;;;4.70;;
5175;SDS011;2607;50.934;6.934;2023-09-12T12:09:01;7.17;;;4.23;;
5175;SDS011;2607;50.934;6.934;2023-09-12T12:11:29;4.90;;;4.37;;
5175;SDS011;2607;50.934;6.934;2023-09-12T12:13:55;4.87;;;4.57;;
5175;SDS011;2607;50.934;6.934;2023-09-12T12:16:21;7.73;;;4.97;;
5175;SDS011;2607;50.934;6.934;2023-09-12T12:18:46;9.60;;;4.70;;
5175;SDS011;2607;50.934;6.934;2023-09-12T12:21:12;6.07;;;4.40;;
5175;SDS011;2607;50.934;6.934;2023-09-12T12:23:39;5.00;;;4.60;;
5175;SDS011;2607;50.934;6.934;2023-09-12T12:26:05;5.40;;;4.60;;
5175;SDS011;2607;50.934;6.934;2023-09-12T12:28:34;4.63;;;4.33;;
5175;SDS011;2607;50.934;6.934;2023-09-12T12:31:00;5.27;;;4.40;;
5175;SDS011;2607;50.934;6.934;2023-09-12T12:33:26;10.70;;;4.93;;
5175;SDS011;2607;50.934;6.934;2023-09-12T12:36:05;5.80;;;4.73;;
5175;SDS011;2607;50.934;6.934;2023-09-12T12:38:36;6.33;;;4.73;;
5175;SDS011;2607;50.934;6.934;2023-09-12T12:41:04;5.33;;;4.93;;
5175;SDS011;2607;50.934;6.934;2023-09-12T12:43:30;5.03;;;4.60;;
5175;SDS011;2607;50.934;6.934;2023-09-12T12:45:58;5.03;;;4.73;;
5175;SDS011;2607;50.934;6.934;2023-09-12T12:48:34;6.37;;;4.53;;
5175;SDS011;2607;50.934;6.934;2023-09-12T12:54:02;9.43;;;5.67;;
5175;SDS011;2607;50.934;6.934;2023-09-12T12:56:29;4.70;;;4.27;;
5175;SDS011;2607;50.934;6.934;2023-09-12T12:58:56;6.20;;;4.60;;
5175;SDS011;2607;50.934;6.934;2023-09-12T13:01:24;5.13;;;4.60;;
5175;SDS011;2607;50.934;6.934;2023-09-12T13:03:50;4.43;;;4.03;;
5175;SDS011;2607;50.934;6.934;2023-09-12T13:06:16;5.00;;;4.50;;
5175;SDS011;2607;50.934;6.934;2023-09-12T13:08:43;4.83;;;4.53;;
5175;SDS011;2607;50.934;6.934;2023-09-12T13:11:10;5.10;;;4.70;;
5175;SDS011;2607;50.934;6.934;2023-09-12T13:13:37;4.73;;;4.33;;
5175;SDS011;2607;50.934;6.934;2023-09-12T13:16:04;5.33;;;4.90;;
5175;SDS011;2607;50.934;6.934;2023-09-12T13:18:33;5.30;;;4.80;;
5175;SDS011;2607;50.934;6.934;2023-09-12T13:20:59;9.67;;;4.80;;
5175;SDS011;2607;50.934;6.934;2023-09-12T13:23:25;5.30;;;4.80;;
5175;SDS011;2607;50.934;6.934;2023-09-12T13:25:51;11.10;;;4.87;;
5175;SDS011;2607;50.934;6.934;2023-09-12T13:28:17;9.50;;;4.40;;
5175;SDS011;2607;50.934;6.934;2023-09-12T13:30:42;9.83;;;4.80;;
5175;SDS011;2607;50.934;6.934;2023-09-12T13:33:09;8.93;;;5.63;;
5175;SDS011;2607;50.934;6.934;2023-09-12T13:35:40;4.53;;;3.83;;
5175;SDS011;2607;50.934;6.934;2023-09-12T13:38:06;4.97;;;4.47;;
5175;SDS011;2607;50.934;6.934;2023-09-12T13:40:37;5.30;;;3.83;;
5175;SDS011;2607;50.934;6.934;2023-09-12T13:43:06;4.20;;;3.87;;
5175;SDS011;2607;50.934;6.934;2023-09-12T13:45:32;7.67;;;4.87;;
5175;SDS011;2607;50.934;6.934;2023-09-12T13:47:59;4.40;;;4.10;;
5175;SDS011;2607;50.934;6.934;2023-09-12T13:50:25;5.00;;;4.60;;
5175;SDS011;2607;50.934;6.934;2023-09-12T13:52:53;5.10;;;4.70;;
5175;SDS011;2607;50.934;6.934;2023-09-12T13:55:20;9.30;;;6.40;;
5175;SDS011;2607;50.934;6.934;2023-09-12T13:57:45;5.27;;;4.97;;
5175;SDS011;2607;50.934;6.934;2023-09-12T14:00:11;5.07;;;4.67;;
5175;SDS011;2607;50.934;6.934;2023-09-12T14:02:37;8.43;;;5.60;;
5175;SDS011;2607;50.934;6.934;2023-09-12T14:05:02;7.27;;;6.67;;
5175;SDS011;2607;50.934;6.934;2023-09-12T14:07:28;8.10;;;7.30;;
5175;SDS011;2607;50.934;6.934;2023-09-12T14:09:53;6.90;;;6.20;;
5175;SDS011;2607;50.934;6.934;2023-09-12T14:12:21;6.33;;;5.80;;
5175;SDS011;2607;50.934;6.934;2023-09-12T14:14:47;18.80;;;13.63;;
5175;SDS011;2607;50.934;6.934;2023-09-12T14:17:13;4.50;;;4.20;;
5175;SDS011;2607;50.934;6.934;2023-09-12T14:19:39;8.60;;;7.70;;
5175;SDS011;2607;50.934;6.934;2023-09-12T14:22:05;5.20;;;4.77;;
5175;SDS011;2607;50.934;6.934;2023-09-12T14:24:30;8.17;;;7.37;;
5175;SDS011;2607;50.934;6.934;2023-09-12T14:26:56;27.77;;;21.27;;
5175;SDS011;2607;50.934;6.934;2023-09-12T14:29:22;9.00;;;8.07;;
5175;SDS011;2607;50.934;6.934;2023-09-12T14:31:49;6.53;;;6.03;;
5175;SDS011;2607;50.934;6.934;2023-09-12T14:34:19;26.23;;;21.80;;
5175;SDS011;2607;50.934;6.934;2023-09-12T14:36:44;30.67;;;24.73;;
5175;SDS011;2607;50.934;6.934;2023-09-12T14:39:13;17.73;;;14.30;;
5175;SDS011;2607;50.934;6.934;2023-09-12T14:41:39;10.10;;;5.60;;
5175;SDS011;2607;50.934;6.934;2023-09-12T14:44:05;9.17;;;8.27;;
5175;SDS011;2607;50.934;6.934;2023-09-12T14:46:31;7.67;;;6.77;;
5175;SDS011;2607;50.934;6.934;2023-09-12T14:48:56;5.40;;;4.40;;
5175;SDS011;2607;50.934;6.934;2023-09-12T14:51:22;5.90;;;5.27;;
5175;SDS011;2607;50.934;6.934;2023-09-12T14:53:48;5.80;;;4.80;;
5175;SDS011;2607;50.934;6.934;2023-09-12T14:56:13;4.30;;;4.00;;
5175;SDS011;2607;50.934;6.934;2023-09-12T14:58:39;5.63;;;5.13;;
5175;SDS011;2607;50.934;6.934;2023-09-12T15:01:04;25.80;;;20.20;;
5175;SDS011;2607;50.934;6.934;2023-09-12T15:03:30;10.77;;;7.80;;
5175;SDS011;2607;50.934;6.934;2023-09-12T15:05:56;6.33;;;4.27;;
5175;SDS011;2607;50.934;6.934;2023-09-12T15:08:21;12.80;;;8.50;;
5175;SDS011;2607;50.934;6.934;2023-09-12T15:10:47;5.43;;;5.10;;
5175;SDS011;2607;50.934;6.934;2023-09-12T15:13:12;12.20;;;7.37;;
5175;SDS011;2607;50.934;6.934;2023-09-12T15:15:41;4.73;;;4.17;;
5175;SDS011;2607;50.934;6.934;2023-09-12T15:18:06;4.70;;;4.40;;
5175;SDS011;2607;50.934;6.934;2023-09-12T15:20:32;4.20;;;4.00;;
5175;SDS011;2607;50.934;6.934;2023-09-12T15:22:57;8.80;;;7.93;;